createdAt,value
2023-02-25T00:04:58.030Z,6.40
2023-02-25T00:10:00.268Z,6.50
2023-02-25T00:15:04.521Z,6.50
2023-02-25T00:20:08.159Z,6.60
2023-02-25T00:25:10.517Z,6.60
2023-02-25T00:30:15.226Z,6.70
2023-02-25T00:35:17.528Z,6.60
2023-02-25T00:40:20.049Z,6.70
2023-02-25T00:45:24.337Z,6.80
2023-02-25T00:50:27.104Z,6.90
2023-02-25T00:55:29.695Z,6.90
2023-02-25T01:00:46.550Z,7.00
2023-02-25T01:05:55.789Z,7.00
2023-02-25T01:10:58.106Z,7.10
2023-02-25T01:16:02.128Z,7.10
2023-02-25T01:21:04.592Z,7.20
2023-02-25T01:26:07.067Z,7.30
2023-02-25T01:31:17.328Z,7.30
2023-02-25T01:36:19.628Z,7.30
2023-02-25T01:41:22.720Z,7.30
2023-02-25T01:46:27.044Z,7.30
2023-02-25T01:51:31.660Z,7.30
2023-02-25T01:56:35.682Z,7.40
2023-02-25T02:01:40.922Z,7.30
2023-02-25T02:06:44.985Z,7.40
2023-02-25T02:11:47.336Z,7.30
2023-02-25T02:17:03.550Z,7.40
2023-02-25T02:22:12.049Z,7.20
2023-02-25T02:27:21.615Z,7.20
2023-02-25T02:32:35.492Z,7.10
2023-02-25T02:37:42.542Z,7.10
2023-02-25T02:42:54.280Z,7.00
2023-02-25T02:48:02.114Z,7.00
2023-02-25T02:53:11.099Z,7.00
2023-02-25T02:58:27.994Z,6.90
2023-02-25T03:03:35.642Z,6.90
2023-02-25T03:08:44.565Z,6.90
2023-02-25T03:13:46.753Z,6.90
2023-02-25T03:18:55.746Z,6.90
2023-02-25T03:23:59.612Z,6.80
2023-02-25T03:29:04.550Z,6.80
2023-02-25T03:34:13.722Z,6.80
2023-02-25T03:39:19.303Z,6.80
2023-02-25T03:44:26.125Z,6.80
2023-02-25T03:49:35.241Z,6.80
2023-02-25T03:54:37.798Z,6.70
2023-02-25T03:59:39.935Z,6.70
2023-02-25T04:04:43.744Z,6.60
2023-02-25T04:09:45.977Z,6.60
2023-02-25T04:14:48.136Z,6.60
2023-02-25T04:19:51.704Z,6.60
2023-02-25T04:24:53.867Z,6.60
2023-02-25T04:29:56.220Z,6.70
2023-02-25T04:34:59.829Z,6.70
2023-02-25T04:40:04.248Z,6.70
2023-02-25T04:45:08.373Z,6.60
2023-02-25T04:50:12.914Z,6.70
2023-02-25T04:55:18.020Z,6.70
2023-02-25T05:00:22.299Z,6.70
2023-02-25T05:05:25.892Z,6.70
2023-02-25T05:10:28.068Z,6.70
2023-02-25T05:15:30.877Z,6.80
2023-02-25T05:20:35.141Z,6.80
2023-02-25T05:25:37.787Z,6.80
2023-02-25T05:30:40.129Z,6.90
2023-02-25T05:35:43.974Z,6.90
2023-02-25T05:40:46.106Z,6.90
2023-02-25T05:45:53.664Z,6.90
2023-02-25T05:51:03.909Z,6.90
2023-02-25T05:56:07.467Z,7.00
2023-02-25T06:01:10.597Z,7.00
2023-02-25T06:06:15.224Z,7.00
2023-02-25T06:11:19.434Z,7.00
2023-02-25T06:16:23.419Z,6.90
2023-02-25T06:21:27.432Z,6.90
2023-02-25T06:26:29.731Z,6.80
2023-02-25T06:31:32.298Z,6.70
2023-02-25T06:36:36.046Z,6.70
2023-02-25T06:41:38.326Z,6.60
2023-02-25T06:46:40.512Z,6.50
2023-02-25T06:51:46.752Z,6.50
2023-02-25T06:56:48.892Z,6.40
2023-02-25T07:01:51.102Z,6.40
2023-02-25T07:06:54.741Z,6.40
2023-02-25T07:11:56.826Z,6.40
2023-02-25T07:16:59.026Z,6.50
2023-02-25T07:22:02.716Z,6.50
2023-02-25T07:27:04.971Z,6.60
2023-02-25T07:32:07.400Z,6.60
2023-02-25T07:37:11.085Z,6.70
2023-02-25T07:42:13.263Z,6.70
2023-02-25T07:47:15.400Z,6.70
2023-02-25T07:52:19.207Z,6.60
2023-02-25T07:57:21.615Z,6.60
2023-02-25T08:02:23.749Z,6.60
2023-02-25T08:07:28.588Z,6.70
2023-02-25T08:12:30.822Z,6.70
2023-02-25T08:17:34.728Z,6.70
2023-02-25T08:22:38.502Z,6.80
2023-02-25T08:27:40.565Z,7.10
2023-02-25T08:32:42.852Z,7.90
2023-02-25T08:37:46.625Z,9.30
2023-02-25T08:42:48.722Z,10.70
2023-02-25T08:47:50.876Z,12.10
2023-02-25T08:53:03.076Z,13.30
2023-02-25T08:58:05.872Z,14.20
2023-02-25T09:03:09.640Z,14.90
2023-02-25T09:08:13.450Z,15.60
2023-02-25T09:13:15.655Z,16.10
2023-02-25T09:18:17.856Z,16.50
2023-02-25T09:23:21.545Z,16.70
2023-02-25T09:28:24.550Z,16.60
2023-02-25T09:33:27.336Z,16.50
2023-02-25T09:38:30.928Z,16.50
2023-02-25T09:43:39.818Z,16.40
2023-02-25T09:48:50.978Z,16.30
2023-02-25T09:54:02.477Z,16.20
2023-02-25T09:59:13.837Z,16.10
2023-02-25T10:04:23.921Z,16.10
2023-02-25T10:09:34.435Z,16.10
2023-02-25T10:14:51.786Z,16.30
2023-02-25T10:20:14.622Z,16.50
2023-02-25T10:25:23.060Z,16.80
2023-02-25T10:30:30.670Z,17.20
2023-02-25T10:35:58.659Z,17.50
2023-02-25T10:41:24.572Z,17.80
2023-02-25T10:46:33.229Z,18.10
2023-02-25T10:51:35.544Z,18.30
2023-02-25T10:56:44.473Z,18.30
2023-02-25T11:01:46.812Z,18.20
2023-02-25T11:06:49.438Z,18.00
2023-02-25T11:11:56.188Z,17.80
2023-02-25T11:17:12.703Z,17.50
2023-02-25T11:22:19.395Z,17.40
2023-02-25T11:27:32.086Z,17.40
2023-02-25T11:32:34.812Z,17.50
2023-02-25T11:37:39.779Z,17.70
2023-02-25T11:42:59.465Z,17.80
2023-02-25T11:48:04.254Z,17.90
2023-02-25T11:53:14.521Z,17.90
2023-02-25T11:58:27.781Z,17.90
2023-02-25T12:04:02.443Z,17.80
2023-02-25T12:09:37.892Z,17.90
2023-02-25T12:15:13.611Z,18.00
2023-02-25T12:21:03.719Z,18.10
2023-02-25T12:26:14.442Z,17.90
2023-02-25T12:31:54.567Z,17.90
2023-02-25T12:37:13.944Z,17.90
2023-02-25T12:42:37.377Z,17.90
2023-02-25T12:48:01.910Z,17.90
2023-02-25T12:53:26.559Z,17.90
2023-02-25T12:58:48.590Z,17.80
2023-02-25T13:04:23.009Z,17.50
2023-02-25T13:09:44.363Z,17.40
2023-02-25T13:15:08.525Z,17.00
2023-02-25T13:20:40.870Z,16.60
2023-02-25T13:26:03.815Z,16.30
2023-02-25T13:31:14.205Z,16.10
2023-02-25T13:36:37.433Z,15.80
2023-02-25T13:42:00.202Z,15.70
2023-02-25T13:47:32.370Z,15.50
2023-02-25T13:52:49.209Z,15.20
2023-02-25T13:58:08.481Z,14.80
2023-02-25T14:03:31.759Z,14.60
2023-02-25T14:09:09.349Z,14.40
2023-02-25T14:14:49.833Z,14.10
2023-02-25T14:20:03.984Z,13.70
2023-02-25T14:25:39.136Z,13.30
2023-02-25T14:30:55.703Z,13.10
2023-02-25T14:36:13.165Z,12.70
2023-02-25T14:41:29.380Z,12.50
2023-02-25T14:46:36.476Z,12.30
2023-02-25T14:52:27.100Z,12.00
2023-02-25T14:58:01.542Z,11.80
2023-02-25T15:03:28.865Z,11.60
2023-02-25T15:09:10.500Z,11.40
2023-02-25T15:14:51.142Z,11.30
2023-02-25T15:20:09.186Z,11.30
2023-02-25T15:25:45.063Z,11.10
2023-02-25T15:31:24.222Z,11.00
2023-02-25T15:36:41.158Z,10.80
2023-02-25T15:41:57.713Z,10.60
2023-02-25T15:47:22.460Z,10.50
2023-02-25T15:52:52.365Z,10.30
2023-02-25T15:57:54.520Z,10.10
2023-02-25T16:02:58.507Z,10.00
2023-02-25T16:08:22.301Z,9.90
2023-02-25T16:13:29.487Z,9.80
2023-02-25T16:18:35.732Z,9.70
2023-02-25T16:23:41.660Z,9.60
2023-02-25T16:28:53.991Z,9.50
2023-02-25T16:34:02.605Z,9.40
2023-02-25T16:39:11.612Z,9.20
2023-02-25T16:44:20.281Z,9.10
2023-02-25T16:49:28.829Z,9.00
2023-02-25T16:54:38.592Z,8.80
2023-02-25T16:59:42.155Z,8.60
2023-02-25T17:04:48.582Z,8.50
2023-02-25T17:09:54.445Z,8.40
2023-02-25T17:14:59.418Z,8.30
2023-02-25T17:20:04.995Z,8.20
2023-02-25T17:25:13.533Z,8.10
2023-02-25T17:30:37.754Z,8.00
2023-02-25T17:35:40.443Z,7.90
2023-02-25T17:40:44.255Z,7.80
2023-02-25T17:45:54.224Z,7.60
2023-02-25T17:51:00.363Z,7.50
2023-02-25T17:56:32.224Z,7.40
2023-02-25T18:01:47.945Z,7.20
2023-02-25T18:06:50.376Z,7.10
2023-02-25T18:11:58.124Z,6.90
2023-02-25T18:17:04.912Z,6.80
2023-02-25T18:22:23.967Z,6.70
2023-02-25T18:27:29.000Z,6.50
2023-02-25T18:32:35.406Z,6.50
2023-02-25T18:37:38.357Z,6.40
2023-02-25T18:42:43.045Z,6.30
2023-02-25T18:47:46.110Z,6.30
2023-02-25T18:52:50.692Z,6.20
2023-02-25T18:57:54.756Z,6.20
2023-02-25T19:03:00.083Z,6.10
2023-02-25T19:08:02.229Z,6.00
2023-02-25T19:13:08.869Z,6.00
2023-02-25T19:18:13.999Z,5.90
2023-02-25T19:23:17.952Z,5.80
2023-02-25T19:28:21.541Z,5.80
2023-02-25T19:33:23.738Z,5.70
2023-02-25T19:38:25.922Z,5.70
2023-02-25T19:43:31.223Z,5.70
2023-02-25T19:48:33.432Z,5.70
2023-02-25T19:53:36.595Z,5.60
2023-02-25T19:58:44.725Z,5.50
2023-02-25T20:03:47.032Z,5.50
2023-02-25T20:08:49.274Z,5.40
2023-02-25T20:13:52.986Z,5.30
2023-02-25T20:18:55.502Z,5.30
2023-02-25T20:23:58.656Z,5.20
2023-02-25T20:29:02.329Z,5.20
2023-02-25T20:34:05.775Z,5.20
2023-02-25T20:39:25.381Z,5.10
2023-02-25T20:44:29.214Z,5.10
2023-02-25T20:49:31.856Z,5.10
2023-02-25T20:54:33.978Z,5.10
2023-02-25T20:59:37.914Z,5.10
2023-02-25T21:04:40.138Z,5.00
2023-02-25T21:09:42.406Z,5.00
2023-02-25T21:14:46.069Z,4.90
2023-02-25T21:19:51.733Z,4.80
2023-02-25T21:24:53.892Z,4.80
2023-02-25T21:29:57.559Z,4.80
2023-02-25T21:35:00.496Z,4.80
2023-02-25T21:40:02.821Z,4.80
2023-02-25T21:45:08.056Z,4.90
2023-02-25T21:50:11.390Z,4.90
2023-02-25T21:55:14.930Z,4.90
2023-02-25T22:00:19.585Z,4.90
2023-02-25T22:05:21.715Z,4.90
2023-02-25T22:10:24.296Z,4.80
2023-02-25T22:15:27.904Z,4.80
2023-02-25T22:20:30.287Z,4.70
2023-02-25T22:25:32.835Z,4.60
2023-02-25T22:30:36.466Z,4.50
2023-02-25T22:35:41.382Z,4.50
2023-02-25T22:40:46.274Z,4.40
2023-02-25T22:45:50.037Z,4.40
2023-02-25T22:50:52.098Z,4.30
2023-02-25T22:55:54.383Z,4.30
2023-02-25T23:00:58.214Z,4.20
2023-02-25T23:06:00.638Z,4.10
2023-02-25T23:11:10.943Z,4.10
2023-02-25T23:16:15.956Z,4.00
2023-02-25T23:21:19.864Z,4.00
2023-02-25T23:26:25.812Z,3.90
2023-02-25T23:31:31.897Z,3.90
2023-02-25T23:36:34.451Z,3.90
2023-02-25T23:41:37.830Z,3.80
2023-02-25T23:46:42.128Z,3.80
2023-02-25T23:51:46.829Z,3.80
2023-02-25T23:56:49.688Z,3.70
